Hawarden, Canada
Current Conditions -  °F | °C
As of 4:00 PM on Thursday 18 Dec 2014 (Local Time) from CYXE Reporting Station
Haze Haze  
Wind Chill: 19°   Ceiling: 400
Heat Index: 19°   Visibility: 5mi
Dew Point: 19°   Wind: 2mph
Humidity: 100%   Direction: NA
Pressure: 29.89"   Gusts: NA
Location:  51.42°N, 106.6°W
Report Text: CYXE 182200Z VRB02KT 5SM BR BKN004 OVC007 M07/M07 A2989 RMK ST5ST3 SLP155
Loading
Personal Weather Stations






























Interactive Weather Map New forecast layout! Learn more

10-Day Weather Forecast

Advertisements
Track Severe Weather on mobile